createdAt,value
2018-03-11T00:04:58.937Z,14.18
2018-03-11T00:10:00.526Z,14.03
2018-03-11T00:15:01.920Z,13.82
2018-03-11T00:20:03.338Z,13.66
2018-03-11T00:25:04.753Z,13.50
2018-03-11T00:30:06.888Z,13.44
2018-03-11T00:35:08.312Z,13.41
2018-03-11T00:40:09.719Z,13.31
2018-03-11T00:45:11.134Z,13.35
2018-03-11T00:50:12.575Z,13.18
2018-03-11T00:55:14.117Z,13.09
2018-03-11T01:00:15.635Z,13.08
2018-03-11T01:05:17.051Z,13.20
2018-03-11T01:10:18.453Z,13.34
2018-03-11T01:15:19.791Z,13.50
2018-03-11T01:20:21.275Z,13.68
2018-03-11T01:25:22.741Z,13.85
2018-03-11T01:30:24.165Z,13.93
2018-03-11T01:35:25.558Z,13.99
2018-03-11T01:40:27.044Z,13.98
2018-03-11T01:45:28.497Z,14.01
2018-03-11T01:50:29.888Z,14.03
2018-03-11T01:55:31.296Z,14.08
2018-03-11T02:00:32.735Z,14.15
2018-03-11T02:05:34.169Z,14.17
2018-03-11T02:10:35.546Z,14.18
2018-03-11T02:15:36.959Z,14.24
2018-03-11T02:20:38.348Z,14.21
2018-03-11T02:25:39.728Z,14.19
2018-03-11T02:30:41.104Z,14.16
2018-03-11T02:35:42.544Z,14.18
2018-03-11T02:40:43.934Z,14.06
2018-03-11T02:45:46.309Z,14.11
2018-03-11T02:50:48.165Z,14.08
2018-03-11T02:55:49.529Z,14.01
2018-03-11T03:00:50.953Z,14.03
2018-03-11T03:05:52.396Z,14.02
2018-03-11T03:10:53.985Z,13.93
2018-03-11T03:15:56.470Z,13.85
2018-03-11T03:20:57.865Z,13.76
2018-03-11T03:26:00.755Z,13.59
2018-03-11T03:31:05.178Z,13.43
2018-03-11T03:36:06.797Z,13.30
2018-03-11T03:41:08.182Z,13.18
2018-03-11T03:46:09.606Z,13.06
2018-03-11T03:51:11.743Z,12.94
2018-03-11T03:56:13.135Z,12.81
2018-03-11T04:01:15.521Z,12.59
2018-03-11T04:06:17.128Z,12.59
2018-03-11T04:11:18.709Z,12.55
2018-03-11T04:16:20.323Z,12.58
2018-03-11T04:21:21.742Z,12.58
2018-03-11T04:26:24.076Z,12.61
2018-03-11T04:31:25.484Z,12.54
2018-03-11T04:36:26.859Z,12.24
2018-03-11T04:41:28.262Z,12.29
2018-03-11T04:46:29.679Z,12.47
2018-03-11T04:51:32.073Z,12.49
2018-03-11T04:56:33.626Z,12.65
2018-03-11T05:01:35.018Z,12.76
2018-03-11T05:06:36.396Z,12.71
2018-03-11T05:11:37.749Z,12.71
2018-03-11T05:16:39.916Z,12.59
2018-03-11T05:21:42.156Z,12.55
2018-03-11T05:26:44.347Z,12.54
2018-03-11T05:31:45.787Z,12.49
2018-03-11T05:36:47.146Z,12.47
2018-03-11T05:41:48.512Z,12.45
2018-03-11T05:46:49.941Z,12.37
2018-03-11T05:51:52.111Z,12.32
2018-03-11T05:56:53.514Z,11.96
2018-03-11T06:01:54.898Z,11.65
2018-03-11T06:06:56.295Z,11.62
2018-03-11T06:11:57.717Z,11.75
2018-03-11T06:17:00.305Z,11.84
2018-03-11T06:22:01.728Z,11.60
2018-03-11T06:27:03.200Z,11.76
2018-03-11T06:32:05.332Z,11.99
2018-03-11T06:37:06.819Z,12.01
2018-03-11T06:42:08.164Z,12.07
2018-03-11T06:47:09.556Z,12.35
2018-03-11T06:52:11.018Z,12.57
2018-03-11T06:57:12.547Z,12.72
2018-03-11T07:02:13.980Z,12.77
2018-03-11T07:07:15.462Z,12.94
2018-03-11T07:12:16.944Z,13.11
2018-03-11T07:17:18.359Z,13.26
2018-03-11T07:22:20.694Z,13.30
2018-03-11T07:27:23.162Z,13.45
2018-03-11T07:32:25.441Z,13.59
2018-03-11T07:37:26.936Z,13.57
2018-03-11T07:42:28.449Z,13.75
2018-03-11T07:47:29.849Z,13.80
2018-03-11T07:52:31.524Z,14.07
2018-03-11T07:57:32.970Z,13.93
2018-03-11T08:02:34.462Z,14.02
2018-03-11T08:07:35.916Z,14.18
2018-03-11T08:12:37.366Z,14.46
2018-03-11T08:17:38.740Z,14.72
2018-03-11T08:22:40.146Z,15.05
2018-03-11T08:27:41.517Z,15.49
2018-03-11T08:32:42.873Z,15.91
2018-03-11T08:37:44.312Z,16.26
2018-03-11T08:42:45.807Z,16.61
2018-03-11T08:47:47.417Z,16.78
2018-03-11T08:52:48.831Z,16.89
2018-03-11T08:57:50.303Z,17.06
2018-03-11T09:02:51.779Z,17.23
2018-03-11T09:07:53.193Z,17.24
2018-03-11T09:12:54.521Z,17.19
2018-03-11T09:17:55.988Z,17.55
2018-03-11T09:22:57.342Z,17.59
2018-03-11T09:27:59.225Z,17.61
2018-03-11T09:33:00.738Z,18.00
2018-03-11T09:38:02.258Z,18.20
2018-03-11T09:43:03.680Z,18.42
2018-03-11T09:48:05.103Z,18.23
2018-03-11T09:53:06.558Z,18.04
2018-03-11T09:58:08.192Z,17.70
2018-03-11T10:03:09.561Z,17.41
2018-03-11T10:08:10.997Z,17.37
2018-03-11T10:13:12.395Z,17.34
2018-03-11T10:18:13.771Z,17.67
2018-03-11T10:23:15.207Z,17.85
2018-03-11T10:28:16.660Z,17.76
2018-03-11T10:33:18.084Z,17.68
2018-03-11T10:38:19.485Z,17.82
2018-03-11T10:43:20.921Z,18.09
2018-03-11T10:48:23.043Z,18.14
2018-03-11T10:53:24.488Z,17.87
2018-03-11T10:58:25.923Z,18.02
2018-03-11T11:03:28.136Z,18.48
2018-03-11T11:08:29.677Z,18.74
2018-03-11T11:13:31.077Z,18.93
2018-03-11T11:18:32.434Z,19.22
2018-03-11T11:23:33.832Z,19.08
2018-03-11T11:28:35.226Z,18.94
2018-03-11T11:33:36.593Z,18.76
2018-03-11T11:38:37.975Z,18.92
2018-03-11T11:43:39.458Z,18.77
2018-03-11T11:48:40.876Z,18.65
2018-03-11T11:53:42.250Z,18.58
2018-03-11T11:58:43.667Z,18.36
2018-03-11T12:03:45.252Z,18.29
2018-03-11T12:08:46.658Z,18.47
2018-03-11T12:13:48.125Z,18.83
2018-03-11T12:18:49.515Z,19.23
2018-03-11T12:23:50.939Z,19.57
2018-03-11T12:28:52.377Z,19.43
2018-03-11T12:33:53.793Z,19.53
2018-03-11T12:38:55.160Z,19.61
2018-03-11T12:43:56.569Z,19.68
2018-03-11T12:48:57.999Z,19.19
2018-03-11T12:54:06.444Z,19.22
2018-03-11T12:59:07.887Z,18.93
2018-03-11T13:04:09.325Z,19.08
2018-03-11T13:09:10.710Z,19.24
2018-03-11T13:14:12.067Z,18.97
2018-03-11T13:19:13.452Z,18.87
2018-03-11T13:24:14.864Z,18.84
2018-03-11T13:29:16.299Z,18.51
2018-03-11T13:34:27.450Z,18.74
2018-03-11T13:39:47.115Z,18.60
2018-03-11T13:45:07.140Z,18.52
2018-03-11T13:50:08.537Z,18.65
2018-03-11T13:55:10.207Z,18.97
2018-03-11T14:00:11.584Z,19.11
2018-03-11T14:05:12.967Z,19.15
2018-03-11T14:10:16.287Z,19.35
2018-03-11T14:15:18.439Z,19.46
2018-03-11T14:20:19.906Z,19.64
2018-03-11T14:25:22.177Z,19.68
2018-03-11T14:30:23.577Z,19.80
2018-03-11T14:35:25.004Z,19.89
2018-03-11T14:40:26.385Z,20.04
2018-03-11T14:45:27.752Z,20.01
2018-03-11T14:50:29.186Z,20.07
2018-03-11T14:55:30.582Z,20.04
2018-03-11T15:00:31.956Z,19.89
2018-03-11T15:05:33.443Z,19.96
2018-03-11T15:10:34.869Z,19.82
2018-03-11T15:15:36.301Z,19.74
2018-03-11T15:20:37.687Z,19.67
2018-03-11T15:25:39.072Z,19.59
2018-03-11T15:30:40.513Z,19.33
2018-03-11T15:35:41.961Z,19.10
2018-03-11T15:40:43.507Z,19.09
2018-03-11T15:45:44.896Z,19.06
2018-03-11T15:50:46.385Z,19.08
2018-03-11T15:55:48.089Z,19.14
2018-03-11T16:00:49.480Z,19.15
2018-03-11T16:05:51.033Z,19.07
2018-03-11T16:10:53.239Z,18.98
2018-03-11T16:15:55.427Z,18.87
2018-03-11T16:20:56.784Z,18.65
2018-03-11T16:25:58.173Z,18.70
2018-03-11T16:30:59.586Z,18.72
2018-03-11T16:36:01.169Z,18.63
2018-03-11T16:41:02.581Z,18.60
2018-03-11T16:46:04.228Z,18.46
2018-03-11T16:51:06.535Z,18.29
2018-03-11T16:56:07.959Z,18.15
2018-03-11T17:01:09.507Z,18.09
2018-03-11T17:06:11.763Z,18.13
2018-03-11T17:11:13.425Z,18.12
2018-03-11T17:16:14.892Z,18.08
2018-03-11T17:21:17.136Z,17.99
2018-03-11T17:26:18.864Z,17.70
2018-03-11T17:31:20.287Z,17.53
2018-03-11T17:36:21.772Z,17.50
2018-03-11T17:41:23.197Z,17.48
2018-03-11T17:46:25.323Z,17.43
2018-03-11T17:51:26.747Z,17.44
2018-03-11T17:56:28.145Z,17.48
2018-03-11T18:01:29.621Z,17.79
2018-03-11T18:06:32.561Z,17.43
2018-03-11T18:11:33.964Z,17.38
2018-03-11T18:16:35.442Z,17.33
2018-03-11T18:21:36.845Z,17.29
2018-03-11T18:26:38.329Z,17.16
2018-03-11T18:31:39.897Z,17.10
2018-03-11T18:36:41.444Z,17.00
2018-03-11T18:41:43.742Z,16.96
2018-03-11T18:46:45.136Z,16.87
2018-03-11T18:51:46.562Z,16.66
2018-03-11T18:56:48.799Z,16.50
2018-03-11T19:01:51.073Z,16.39
2018-03-11T19:06:52.980Z,16.22
2018-03-11T19:11:55.189Z,16.07
2018-03-11T19:16:56.939Z,16.03
2018-03-11T19:21:59.369Z,16.00
2018-03-11T19:27:00.808Z,15.93
2018-03-11T19:32:02.276Z,15.93
2018-03-11T19:37:03.767Z,15.86
2018-03-11T19:42:05.162Z,15.64
2018-03-11T19:47:07.481Z,15.49
2018-03-11T19:52:09.088Z,15.19
2018-03-11T19:57:11.465Z,15.21
2018-03-11T20:02:13.584Z,15.13
2018-03-11T20:07:15.040Z,15.03
2018-03-11T20:12:16.497Z,14.90
2018-03-11T20:17:17.998Z,14.75
2018-03-11T20:22:20.388Z,14.87
2018-03-11T20:27:21.830Z,14.88
2018-03-11T20:32:23.435Z,14.78
2018-03-11T20:37:24.810Z,14.80
2018-03-11T20:42:26.333Z,14.85
2018-03-11T20:47:27.774Z,14.85
2018-03-11T20:52:29.222Z,14.59
2018-03-11T20:57:30.610Z,14.45
2018-03-11T21:02:32.019Z,14.06
2018-03-11T21:07:33.524Z,14.08
2018-03-11T21:12:35.672Z,14.12
2018-03-11T21:17:37.126Z,14.18
2018-03-11T21:22:39.269Z,14.28
2018-03-11T21:27:40.697Z,14.22
2018-03-11T21:32:42.166Z,14.24
2018-03-11T21:37:43.924Z,14.25
2018-03-11T21:42:46.087Z,14.21
2018-03-11T21:47:47.573Z,14.14
2018-03-11T21:52:49.062Z,14.05
2018-03-11T21:57:50.428Z,13.97
2018-03-11T22:02:51.853Z,13.69
2018-03-11T22:07:56.331Z,13.43
2018-03-11T22:13:03.789Z,13.40
2018-03-11T22:18:06.211Z,12.75
2018-03-11T22:23:08.445Z,12.47
2018-03-11T22:28:09.856Z,12.36
2018-03-11T22:33:11.405Z,12.28
2018-03-11T22:38:13.651Z,12.31
2018-03-11T22:43:15.142Z,12.37
2018-03-11T22:48:16.590Z,12.41
2018-03-11T22:53:18.073Z,12.41
2018-03-11T22:58:22.363Z,12.33
2018-03-11T23:03:23.819Z,12.29
2018-03-11T23:08:27.824Z,12.19
2018-03-11T23:13:29.324Z,12.21
2018-03-11T23:18:31.540Z,12.23
2018-03-11T23:23:32.949Z,12.19
2018-03-11T23:28:34.398Z,11.84
2018-03-11T23:33:35.890Z,11.57
2018-03-11T23:38:39.008Z,11.27
2018-03-11T23:43:40.538Z,11.53
2018-03-11T23:48:42.819Z,11.65
2018-03-11T23:53:44.385Z,11.52
2018-03-11T23:58:45.811Z,11.13
